createdAt,value
2024-02-29T00:01:02.349Z,6.38
2024-02-29T00:03:30.458Z,5.40
2024-02-29T00:05:57.741Z,5.25
2024-02-29T00:08:27.468Z,4.75
2024-02-29T00:10:56.119Z,4.82
2024-02-29T00:13:23.325Z,4.07
2024-02-29T00:15:52.482Z,3.90
2024-02-29T00:18:20.279Z,4.75
2024-02-29T00:20:47.953Z,5.75
2024-02-29T00:23:15.026Z,4.72
2024-02-29T00:25:42.150Z,5.28
2024-02-29T00:28:09.433Z,4.82
2024-02-29T00:30:36.476Z,5.53
2024-02-29T00:33:04.610Z,5.10
2024-02-29T00:35:33.014Z,4.65
2024-02-29T00:38:00.136Z,4.68
2024-02-29T00:40:27.211Z,5.28
2024-02-29T00:42:54.597Z,5.75
2024-02-29T00:45:21.613Z,5.47
2024-02-29T00:47:48.918Z,5.45
2024-02-29T00:50:16.489Z,4.97
2024-02-29T00:52:43.936Z,5.03
2024-02-29T00:55:13.370Z,5.00
2024-02-29T00:57:40.634Z,5.15
2024-02-29T01:00:09.945Z,4.88
2024-02-29T01:02:37.185Z,4.65
2024-02-29T01:05:04.676Z,4.80
2024-02-29T01:07:32.616Z,4.38
2024-02-29T01:10:00.425Z,5.82
2024-02-29T01:12:27.582Z,5.10
2024-02-29T01:14:54.795Z,5.10
2024-02-29T01:17:24.299Z,6.10
2024-02-29T01:19:51.721Z,4.30
2024-02-29T01:22:18.916Z,5.30
2024-02-29T01:24:46.097Z,4.97
2024-02-29T01:27:13.518Z,5.20
2024-02-29T01:29:41.216Z,5.55
2024-02-29T01:32:15.856Z,4.90
2024-02-29T01:34:49.516Z,4.55
2024-02-29T01:37:16.747Z,4.95
2024-02-29T01:39:44.200Z,5.10
2024-02-29T01:42:14.668Z,4.50
2024-02-29T01:44:51.052Z,4.55
2024-02-29T01:47:18.122Z,4.80
2024-02-29T01:49:47.715Z,5.03
2024-02-29T01:52:16.710Z,4.68
2024-02-29T01:54:44.698Z,4.47
2024-02-29T01:57:12.063Z,4.78
2024-02-29T01:59:42.715Z,5.30
2024-02-29T02:02:09.750Z,5.38
2024-02-29T02:04:36.816Z,4.80
2024-02-29T02:07:06.071Z,5.13
2024-02-29T02:09:33.362Z,5.20
2024-02-29T02:12:00.465Z,5.05
2024-02-29T02:14:27.602Z,5.45
2024-02-29T02:16:54.996Z,5.35
2024-02-29T02:19:22.101Z,5.07
2024-02-29T02:21:49.202Z,4.65
2024-02-29T02:24:16.514Z,4.78
2024-02-29T02:26:43.586Z,4.78
2024-02-29T02:29:13.865Z,5.15
2024-02-29T02:31:43.189Z,4.63
2024-02-29T02:34:10.332Z,4.32
2024-02-29T02:36:37.615Z,4.22
2024-02-29T02:39:04.699Z,5.15
2024-02-29T02:41:31.714Z,4.70
2024-02-29T02:43:58.793Z,3.72
2024-02-29T02:46:25.989Z,4.60
2024-02-29T02:48:53.087Z,4.53
2024-02-29T02:51:20.245Z,4.15
2024-02-29T02:53:47.272Z,4.18
2024-02-29T02:56:14.822Z,4.95
2024-02-29T02:58:42.177Z,4.80
2024-02-29T03:01:09.438Z,4.57
2024-02-29T03:03:48.129Z,4.63
2024-02-29T03:06:24.583Z,4.18
2024-02-29T03:08:51.661Z,4.00
2024-02-29T03:11:19.971Z,4.75
2024-02-29T03:13:47.384Z,4.18
2024-02-29T03:16:23.049Z,3.90
2024-02-29T03:18:50.146Z,4.55
2024-02-29T03:21:17.314Z,4.55
2024-02-29T03:23:44.678Z,4.20
2024-02-29T03:26:11.777Z,4.53
2024-02-29T03:28:39.118Z,4.40
2024-02-29T03:31:11.607Z,4.53
2024-02-29T03:33:38.870Z,4.95
2024-02-29T03:36:06.235Z,4.18
2024-02-29T03:38:33.633Z,3.80
2024-02-29T03:41:00.811Z,4.72
2024-02-29T03:43:28.781Z,4.30
2024-02-29T03:45:55.980Z,4.60
2024-02-29T03:48:23.258Z,5.93
2024-02-29T03:50:50.766Z,4.97
2024-02-29T03:53:17.776Z,4.68
2024-02-29T03:55:46.755Z,4.20
2024-02-29T03:58:14.006Z,4.57
2024-02-29T04:00:41.332Z,4.30
2024-02-29T04:03:08.422Z,4.45
2024-02-29T04:05:35.756Z,5.03
2024-02-29T04:08:05.093Z,4.50
2024-02-29T04:10:32.432Z,4.85
2024-02-29T04:13:00.029Z,4.63
2024-02-29T04:15:27.243Z,3.88
2024-02-29T04:17:54.532Z,4.30
2024-02-29T04:20:21.802Z,3.42
2024-02-29T04:22:49.105Z,4.78
2024-02-29T04:25:17.889Z,3.90
2024-02-29T04:27:46.930Z,4.70
2024-02-29T04:30:15.290Z,4.97
2024-02-29T04:32:42.423Z,4.57
2024-02-29T04:35:10.778Z,4.30
2024-02-29T04:37:38.678Z,4.45
2024-02-29T04:40:08.967Z,4.63
2024-02-29T04:42:38.240Z,4.20
2024-02-29T04:45:06.154Z,3.95
2024-02-29T04:47:33.230Z,5.03
2024-02-29T04:50:00.297Z,4.00
2024-02-29T04:52:27.827Z,4.00
2024-02-29T04:54:54.958Z,4.38
2024-02-29T04:57:22.106Z,4.07
2024-02-29T04:59:49.281Z,3.70
2024-02-29T05:02:17.517Z,4.40
2024-02-29T05:04:45.715Z,4.15
2024-02-29T05:07:12.872Z,4.97
2024-02-29T05:09:40.173Z,3.85
2024-02-29T05:12:07.595Z,4.90
2024-02-29T05:14:34.714Z,4.00
2024-02-29T05:17:01.843Z,4.28
2024-02-29T05:19:28.951Z,4.20
2024-02-29T05:21:57.174Z,3.97
2024-02-29T05:24:24.469Z,4.13
2024-02-29T05:26:54.451Z,3.95
2024-02-29T05:29:36.707Z,4.50
2024-02-29T05:32:05.321Z,4.38
2024-02-29T05:34:32.560Z,4.93
2024-02-29T05:36:59.756Z,4.10
2024-02-29T05:39:27.003Z,4.43
2024-02-29T05:41:57.388Z,4.65
2024-02-29T05:44:24.917Z,4.43
2024-02-29T05:46:52.046Z,5.70
2024-02-29T05:49:20.217Z,4.53
2024-02-29T05:54:32.794Z,4.70
2024-02-29T05:57:02.126Z,5.45
2024-02-29T05:59:30.643Z,4.07
2024-02-29T06:01:57.965Z,4.95
2024-02-29T06:04:25.648Z,5.07
2024-02-29T06:06:52.833Z,5.50
2024-02-29T06:09:19.936Z,4.38
2024-02-29T06:11:47.051Z,4.63
2024-02-29T06:14:14.456Z,4.93
2024-02-29T06:16:41.651Z,4.60
2024-02-29T06:19:08.985Z,4.80
2024-02-29T06:21:36.195Z,4.68
2024-02-29T06:24:04.868Z,4.65
2024-02-29T06:26:32.008Z,4.50
2024-02-29T06:28:59.232Z,4.82
2024-02-29T06:31:30.471Z,4.32
2024-02-29T06:34:01.107Z,4.72
2024-02-29T06:36:28.352Z,5.28
2024-02-29T06:38:58.143Z,4.70
2024-02-29T06:41:26.081Z,5.57
2024-02-29T06:43:53.156Z,5.00
2024-02-29T06:46:22.913Z,4.88
2024-02-29T06:48:50.517Z,5.18
2024-02-29T06:51:17.696Z,4.75
2024-02-29T06:53:46.767Z,5.20
2024-02-29T06:56:13.916Z,4.82
2024-02-29T06:58:43.845Z,5.00
2024-02-29T07:01:11.470Z,4.85
2024-02-29T07:03:38.536Z,4.97
2024-02-29T07:06:06.127Z,5.10
2024-02-29T07:08:38.570Z,4.78
2024-02-29T07:11:05.907Z,5.07
2024-02-29T07:13:33.156Z,5.57
2024-02-29T07:16:00.626Z,4.90
2024-02-29T07:18:27.723Z,4.97
2024-02-29T07:20:55.379Z,5.32
2024-02-29T07:23:22.628Z,5.32
2024-02-29T07:25:49.629Z,6.03
2024-02-29T07:28:16.919Z,5.90
2024-02-29T07:30:45.917Z,5.75
2024-02-29T07:33:13.057Z,5.78
2024-02-29T07:35:40.184Z,5.47
2024-02-29T07:38:07.315Z,5.30
2024-02-29T07:40:36.850Z,5.20
2024-02-29T07:43:04.089Z,6.40
2024-02-29T07:45:31.234Z,5.32
2024-02-29T07:47:58.453Z,5.70
2024-02-29T07:50:25.793Z,5.72
2024-02-29T07:52:53.005Z,5.57
2024-02-29T07:55:20.100Z,5.45
2024-02-29T07:57:48.191Z,6.18
2024-02-29T08:00:15.569Z,5.75
2024-02-29T08:02:47.735Z,5.78
2024-02-29T08:05:15.259Z,6.60
2024-02-29T08:07:42.520Z,6.75
2024-02-29T08:10:14.829Z,5.13
2024-02-29T08:12:42.066Z,5.75
2024-02-29T08:15:12.220Z,5.93
2024-02-29T08:17:39.552Z,5.25
2024-02-29T08:20:07.328Z,5.68
2024-02-29T08:22:35.129Z,5.80
2024-02-29T08:25:02.523Z,5.47
2024-02-29T08:27:31.208Z,5.35
2024-02-29T08:30:02.375Z,6.88
2024-02-29T08:32:30.853Z,5.57
2024-02-29T08:34:58.299Z,5.80
2024-02-29T08:37:25.558Z,5.82
2024-02-29T08:39:52.944Z,6.22
2024-02-29T08:42:20.150Z,5.97
2024-02-29T08:44:49.273Z,5.70
2024-02-29T08:47:16.356Z,5.32
2024-02-29T08:49:43.440Z,5.10
2024-02-29T08:52:10.854Z,5.60
2024-02-29T08:54:38.255Z,6.85
2024-02-29T08:57:09.200Z,6.00
2024-02-29T08:59:39.345Z,6.43
2024-02-29T09:02:07.901Z,6.65
2024-02-29T09:04:35.573Z,6.15
2024-02-29T09:07:05.076Z,6.13
2024-02-29T09:09:32.199Z,6.18
2024-02-29T09:12:00.339Z,5.93
2024-02-29T09:14:27.478Z,5.82
2024-02-29T09:16:57.332Z,5.68
2024-02-29T09:19:25.114Z,5.60
2024-02-29T09:21:52.222Z,4.78
2024-02-29T09:24:19.833Z,6.25
2024-02-29T09:26:46.929Z,6.25
2024-02-29T09:29:14.113Z,5.82
2024-02-29T09:31:42.106Z,5.35
2024-02-29T09:34:09.266Z,5.70
2024-02-29T09:36:38.714Z,6.43
2024-02-29T09:39:06.741Z,5.03
2024-02-29T09:41:50.909Z,5.82
2024-02-29T09:44:21.808Z,5.70
2024-02-29T09:46:51.866Z,6.63
2024-02-29T09:49:19.784Z,5.90
2024-02-29T09:51:47.940Z,5.90
2024-02-29T09:54:19.288Z,6.00
2024-02-29T09:56:49.827Z,6.10
2024-02-29T09:59:18.702Z,6.03
2024-02-29T10:01:50.619Z,4.70
2024-02-29T10:04:18.142Z,5.50
2024-02-29T10:06:45.634Z,5.60
2024-02-29T10:09:12.944Z,6.35
2024-02-29T10:11:43.778Z,6.15
2024-02-29T10:14:21.743Z,6.82
2024-02-29T10:16:53.093Z,6.45
2024-02-29T10:19:21.582Z,5.88
2024-02-29T10:21:49.472Z,6.35
2024-02-29T10:24:16.859Z,6.35
2024-02-29T10:26:43.889Z,6.22
2024-02-29T10:29:12.262Z,5.75
2024-02-29T10:31:39.966Z,5.80
2024-02-29T10:34:11.413Z,5.72
2024-02-29T10:36:39.583Z,5.68
2024-02-29T10:39:06.760Z,6.90
2024-02-29T10:41:33.971Z,6.88
2024-02-29T10:44:05.069Z,6.45
2024-02-29T10:46:33.979Z,5.90
2024-02-29T10:49:08.566Z,4.70
2024-02-29T10:51:52.699Z,7.10
2024-02-29T10:54:21.905Z,6.50
2024-02-29T10:56:52.543Z,5.65
2024-02-29T10:59:20.988Z,6.30
2024-02-29T11:01:49.738Z,5.75
2024-02-29T11:04:17.226Z,5.85
2024-02-29T11:07:08.039Z,6.47
2024-02-29T11:09:42.046Z,6.50
2024-02-29T11:12:15.123Z,5.93
2024-02-29T11:14:46.997Z,5.97
2024-02-29T11:17:19.714Z,6.68
2024-02-29T11:19:57.896Z,5.97
2024-02-29T11:22:34.858Z,6.80
2024-02-29T11:25:10.972Z,6.40
2024-02-29T11:27:39.172Z,5.70
2024-02-29T11:30:07.246Z,6.13
2024-02-29T11:32:35.437Z,6.05
2024-02-29T11:35:07.365Z,5.53
2024-02-29T11:37:35.697Z,5.93
2024-02-29T11:40:07.184Z,6.13
2024-02-29T11:42:35.584Z,5.90
2024-02-29T11:45:02.978Z,5.70
2024-02-29T11:47:30.818Z,6.18
2024-02-29T11:50:01.763Z,6.32
2024-02-29T11:52:30.225Z,5.85
2024-02-29T11:55:00.393Z,6.03
2024-02-29T11:57:29.971Z,6.57
2024-02-29T11:59:58.421Z,6.45
2024-02-29T12:02:25.694Z,6.22
2024-02-29T12:04:52.920Z,6.93
2024-02-29T12:07:21.297Z,6.22
2024-02-29T12:09:48.939Z,6.30
2024-02-29T12:12:17.059Z,6.30
2024-02-29T12:14:44.969Z,6.13
2024-02-29T12:17:12.352Z,6.47
2024-02-29T12:19:41.903Z,5.93
2024-02-29T12:22:15.418Z,5.82
2024-02-29T12:24:45.697Z,6.53
2024-02-29T12:27:12.896Z,6.13
2024-02-29T12:29:41.698Z,6.07
2024-02-29T12:32:08.863Z,6.13
2024-02-29T12:34:39.225Z,6.70
2024-02-29T12:37:11.029Z,7.40
2024-02-29T12:39:38.915Z,6.30
2024-02-29T12:42:06.520Z,6.10
2024-02-29T12:44:34.178Z,6.35
2024-02-29T12:47:01.316Z,6.45
2024-02-29T12:49:28.519Z,6.63
2024-02-29T12:51:56.507Z,5.72
2024-02-29T12:54:23.868Z,5.28
2024-02-29T12:56:51.327Z,6.85
2024-02-29T12:59:21.251Z,6.15
2024-02-29T13:01:54.684Z,6.10
2024-02-29T13:04:25.904Z,5.55
2024-02-29T13:06:56.456Z,6.43
2024-02-29T13:09:26.745Z,6.18
2024-02-29T13:11:56.106Z,6.93
2024-02-29T13:14:23.275Z,6.93
2024-02-29T13:16:50.639Z,7.72
2024-02-29T13:19:17.702Z,6.15
2024-02-29T13:21:45.150Z,5.97
2024-02-29T13:24:12.250Z,6.40
2024-02-29T13:26:39.610Z,6.40
2024-02-29T13:29:06.872Z,6.47
2024-02-29T13:31:36.664Z,6.80
2024-02-29T13:34:11.585Z,6.43
2024-02-29T13:36:38.792Z,6.28
2024-02-29T13:39:08.814Z,6.70
2024-02-29T13:41:35.869Z,7.20
2024-02-29T13:44:03.725Z,7.30
2024-02-29T13:46:31.164Z,7.30
2024-02-29T13:49:20.277Z,6.63
2024-02-29T13:51:46.137Z,6.70
2024-02-29T13:54:14.285Z,6.85
2024-02-29T13:56:41.529Z,7.35
2024-02-29T13:59:08.808Z,6.95
2024-02-29T14:01:36.440Z,7.03
2024-02-29T14:04:03.689Z,6.75
2024-02-29T14:06:32.124Z,6.30
2024-02-29T14:08:59.417Z,8.35
2024-02-29T14:11:26.525Z,7.43
2024-02-29T14:13:53.712Z,7.28
2024-02-29T14:16:21.348Z,7.75
2024-02-29T14:18:48.929Z,7.13
2024-02-29T14:21:20.299Z,6.97
2024-02-29T14:23:47.550Z,7.32
2024-02-29T14:26:14.854Z,7.30
2024-02-29T14:28:42.094Z,7.35
2024-02-29T14:31:10.140Z,6.43
2024-02-29T14:33:39.162Z,7.63
2024-02-29T14:36:08.578Z,7.15
2024-02-29T14:38:35.834Z,6.70
2024-02-29T14:41:02.822Z,5.93
2024-02-29T14:43:30.921Z,6.90
2024-02-29T14:45:58.059Z,6.78
2024-02-29T14:48:25.887Z,7.03
2024-02-29T14:50:53.006Z,7.18
2024-02-29T14:53:20.211Z,6.82
2024-02-29T14:55:48.549Z,7.20
2024-02-29T14:58:15.703Z,7.22
2024-02-29T15:00:43.181Z,8.02
2024-02-29T15:03:10.265Z,7.68
2024-02-29T15:05:37.461Z,7.20
2024-02-29T15:08:06.825Z,7.43
2024-02-29T15:10:33.966Z,7.57
2024-02-29T15:13:01.254Z,8.27
2024-02-29T15:15:29.689Z,6.82
2024-02-29T15:17:57.095Z,8.38
2024-02-29T15:20:24.424Z,7.70
2024-02-29T15:22:51.660Z,7.40
2024-02-29T15:25:18.975Z,8.23
2024-02-29T15:27:55.087Z,9.25
2024-02-29T15:30:22.442Z,7.82
2024-02-29T15:32:52.303Z,7.93
2024-02-29T15:35:19.687Z,7.93
2024-02-29T15:37:46.939Z,8.38
2024-02-29T15:40:14.138Z,7.75
2024-02-29T15:42:41.454Z,8.68
2024-02-29T15:45:09.125Z,8.15
2024-02-29T15:47:36.613Z,8.40
2024-02-29T15:50:04.684Z,8.43
2024-02-29T15:52:31.740Z,8.75
2024-02-29T15:54:58.917Z,9.00
2024-02-29T15:57:26.496Z,8.30
2024-02-29T15:59:54.124Z,8.45
2024-02-29T16:02:21.523Z,8.48
2024-02-29T16:04:49.503Z,8.10
2024-02-29T16:07:16.647Z,7.72
2024-02-29T16:09:44.218Z,8.18
2024-02-29T16:12:12.407Z,8.93
2024-02-29T16:14:41.713Z,7.88
2024-02-29T16:17:09.826Z,7.47
2024-02-29T16:19:36.860Z,7.75
2024-02-29T16:22:04.371Z,7.65
2024-02-29T16:24:31.740Z,7.80
2024-02-29T16:26:59.360Z,8.27
2024-02-29T16:29:29.386Z,7.90
2024-02-29T16:31:56.645Z,8.38
2024-02-29T16:34:23.855Z,9.82
2024-02-29T16:36:51.176Z,8.55
2024-02-29T16:39:18.215Z,9.15
2024-02-29T16:41:45.550Z,9.63
2024-02-29T16:44:12.804Z,8.30
2024-02-29T16:46:41.263Z,8.85
2024-02-29T16:49:08.852Z,7.82
2024-02-29T16:51:35.963Z,8.80
2024-02-29T16:54:03.279Z,9.13
2024-02-29T16:56:30.525Z,9.05
2024-02-29T16:58:57.697Z,8.70
2024-02-29T17:01:24.882Z,8.52
2024-02-29T17:03:52.206Z,8.45
2024-02-29T17:06:19.443Z,9.05
2024-02-29T17:08:46.798Z,8.95
2024-02-29T17:11:13.986Z,8.48
2024-02-29T17:13:41.436Z,8.30
2024-02-29T17:16:08.637Z,8.82
2024-02-29T17:18:36.328Z,9.52
2024-02-29T17:21:04.005Z,8.75
2024-02-29T17:23:31.191Z,8.13
2024-02-29T17:25:58.347Z,9.07
2024-02-29T17:28:31.209Z,8.95
2024-02-29T17:31:01.036Z,8.82
2024-02-29T17:33:31.369Z,9.15
2024-02-29T17:36:01.810Z,8.98
2024-02-29T17:38:29.530Z,9.70
2024-02-29T17:41:00.380Z,9.10
2024-02-29T17:43:30.958Z,10.10
2024-02-29T17:45:58.417Z,9.93
2024-02-29T17:48:25.706Z,8.55
2024-02-29T17:50:53.137Z,9.57
2024-02-29T17:53:20.283Z,9.15
2024-02-29T17:55:47.597Z,8.77
2024-02-29T17:58:14.919Z,9.27
2024-02-29T18:00:42.766Z,8.80
2024-02-29T18:03:10.844Z,8.32
2024-02-29T18:05:38.116Z,8.52
2024-02-29T18:08:07.200Z,9.20
2024-02-29T18:10:36.771Z,9.07
2024-02-29T18:13:07.307Z,8.73
2024-02-29T18:15:34.623Z,9.00
2024-02-29T18:18:03.977Z,8.70
2024-02-29T18:20:31.283Z,7.90
2024-02-29T18:23:02.682Z,8.25
2024-02-29T18:25:31.221Z,8.48
2024-02-29T18:27:58.544Z,8.80
2024-02-29T18:30:26.157Z,8.00
2024-02-29T18:32:55.879Z,8.30
2024-02-29T18:35:23.575Z,8.00
2024-02-29T18:37:56.952Z,8.70
2024-02-29T18:40:24.551Z,8.70
2024-02-29T18:42:54.825Z,9.48
2024-02-29T18:45:27.599Z,8.88
2024-02-29T18:47:58.288Z,8.00
2024-02-29T18:50:27.241Z,9.15
2024-02-29T18:52:54.750Z,8.77
2024-02-29T18:55:24.267Z,9.23
2024-02-29T18:57:52.014Z,8.88
2024-02-29T19:00:19.653Z,7.88
2024-02-29T19:02:46.841Z,8.60
2024-02-29T19:05:14.140Z,8.75
2024-02-29T19:07:41.296Z,9.15
2024-02-29T19:10:11.350Z,9.77
2024-02-29T19:12:39.270Z,9.30
2024-02-29T19:15:08.586Z,9.02
2024-02-29T19:17:36.307Z,8.68
2024-02-29T19:20:11.755Z,8.70
2024-02-29T19:22:40.504Z,10.07
2024-02-29T19:25:09.983Z,9.00
2024-02-29T19:27:37.376Z,8.70
2024-02-29T19:30:06.958Z,9.10
2024-02-29T19:32:34.098Z,9.02
2024-02-29T19:35:01.291Z,9.13
2024-02-29T19:37:28.692Z,8.60
2024-02-29T19:39:56.154Z,8.57
2024-02-29T19:42:23.619Z,9.57
2024-02-29T19:44:50.997Z,8.95
2024-02-29T19:47:21.987Z,9.82
2024-02-29T19:49:49.387Z,9.35
2024-02-29T19:52:18.837Z,9.70
2024-02-29T19:54:48.366Z,10.00
2024-02-29T19:57:17.050Z,8.73
2024-02-29T19:59:47.630Z,10.90
2024-02-29T20:02:16.673Z,8.25
2024-02-29T20:04:49.547Z,9.88
2024-02-29T20:07:17.043Z,8.93
2024-02-29T20:09:50.157Z,9.02
2024-02-29T20:14:49.591Z,9.35
2024-02-29T20:17:19.120Z,9.98
2024-02-29T20:19:51.816Z,9.88
2024-02-29T20:22:21.798Z,11.60
2024-02-29T20:24:49.325Z,11.50
2024-02-29T20:27:16.518Z,13.30
2024-02-29T20:29:44.861Z,12.32
2024-02-29T20:32:15.084Z,12.50
2024-02-29T20:34:42.185Z,10.40
2024-02-29T20:37:09.308Z,15.95
2024-02-29T20:39:39.137Z,14.90
2024-02-29T20:42:08.999Z,13.35
2024-02-29T20:44:39.147Z,14.18
2024-02-29T20:47:09.807Z,17.38
2024-02-29T20:49:37.358Z,15.48
2024-02-29T20:52:06.944Z,10.95
2024-02-29T20:54:36.783Z,28.27
2024-02-29T20:57:04.071Z,17.15
2024-02-29T20:59:34.428Z,20.25
2024-02-29T21:02:10.172Z,17.13
2024-02-29T21:04:40.635Z,19.85
2024-02-29T21:07:09.845Z,13.82
2024-02-29T21:09:37.208Z,16.85
2024-02-29T21:12:07.807Z,20.63
2024-02-29T21:14:41.489Z,20.35
2024-02-29T21:17:08.871Z,16.77
2024-02-29T21:19:41.846Z,22.98
2024-02-29T21:24:39.263Z,18.70
2024-02-29T21:27:09.873Z,22.35
2024-02-29T21:29:37.052Z,31.67
2024-02-29T21:32:07.497Z,26.83
2024-02-29T21:34:37.492Z,21.23
2024-02-29T21:37:06.920Z,18.27
2024-02-29T21:39:44.347Z,22.52
2024-02-29T21:42:16.436Z,31.55
2024-02-29T21:44:45.407Z,21.48
2024-02-29T21:47:12.519Z,29.77
2024-02-29T21:49:39.625Z,28.02
2024-02-29T21:52:06.937Z,32.10
2024-02-29T21:54:36.451Z,22.58
2024-02-29T21:57:06.869Z,28.08
2024-02-29T21:59:36.466Z,29.73
2024-02-29T22:02:06.732Z,17.05
2024-02-29T22:04:33.910Z,17.35
2024-02-29T22:07:05.915Z,19.70
2024-02-29T22:09:36.041Z,15.27
2024-02-29T22:12:29.667Z,25.67
2024-02-29T22:18:02.033Z,23.30
2024-02-29T22:20:30.264Z,23.35
2024-02-29T22:22:57.821Z,27.83
2024-02-29T22:25:28.058Z,22.20
2024-02-29T22:27:55.876Z,15.75
2024-02-29T22:30:22.953Z,17.02
2024-02-29T22:32:59.946Z,17.00
2024-02-29T22:35:30.353Z,23.60
2024-02-29T22:37:57.402Z,17.98
2024-02-29T22:40:38.697Z,20.02
2024-02-29T22:43:19.183Z,15.70
2024-02-29T22:45:46.645Z,21.83
2024-02-29T22:48:14.226Z,11.30
2024-02-29T22:50:44.371Z,20.60
2024-02-29T22:53:14.352Z,19.88
2024-02-29T22:55:42.338Z,23.45
2024-02-29T22:58:09.932Z,21.40
2024-02-29T23:00:37.980Z,17.02
2024-02-29T23:03:06.354Z,27.52
2024-02-29T23:05:35.040Z,31.83
2024-02-29T23:08:02.842Z,20.20
2024-02-29T23:10:30.781Z,20.98
2024-02-29T23:12:59.461Z,23.70
2024-02-29T23:15:31.870Z,25.63
2024-02-29T23:17:59.485Z,22.05
2024-02-29T23:20:30.366Z,29.85
2024-02-29T23:22:59.935Z,19.58
2024-02-29T23:25:27.509Z,28.95
2024-02-29T23:27:56.050Z,21.85
2024-02-29T23:30:24.747Z,27.17
2024-02-29T23:32:52.371Z,21.40
2024-02-29T23:35:20.048Z,22.30
2024-02-29T23:37:47.799Z,10.30
2024-02-29T23:40:15.880Z,11.30
2024-02-29T23:42:43.352Z,17.70
2024-02-29T23:45:11.889Z,23.13
2024-02-29T23:47:40.722Z,20.08
2024-02-29T23:50:10.068Z,23.02
2024-02-29T23:52:37.750Z,21.15
2024-02-29T23:55:06.283Z,26.27
2024-02-29T23:57:35.711Z,12.25
